Flight Track Log - Related Links

Times and Time Zones

All times are in EDT time to prevent confusion due to time zone crossing. See the N552XJ flight status page for this flight to view local times or setup timezone preferences in your user account.

Time Position Orientation Groundspeed Altitude Reporting Facility
EDT Latitude Longitude Course Direction KTS MPH feet Rate Location/Type
Fri 07:00:29 PM 27.4000 -82.5667 282° West 177 204 800  Level Tampa TRACON
Fri 07:02:30 PM 27.4228 -82.6911 282° West 187 215 7,300 3,182 Climbing Miami Center
Fri 07:03:30 PM 27.4486 -82.7719 290° West 230 265 10,400 2,900 Climbing Miami Center
Fri 07:04:30 PM 27.4803 -82.8647 291° West 278 320 13,100 2,650 Climbing Miami Center
Fri 07:05:30 PM 27.5139 -82.9625 291° West 319 367 15,700 2,500 Climbing Miami Center
Fri 07:06:30 PM 27.5511 -83.0675 292° West 335 386 18,100 2,400 Climbing Miami Center
Fri 07:07:30 PM 27.5881 -83.1747 291° West 358 412 20,500 2,250 Climbing Miami Center
Fri 07:08:30 PM 27.6269 -83.2847 292° West 364 419 22,600 2,000 Climbing Miami Center
Fri 07:09:30 PM 27.6658 -83.3969 291° West 376 433 24,500 1,700 Climbing Miami Center
Fri 07:10:30 PM 27.6986 -83.4994 290° West 393 452 26,000 1,400 Climbing Miami Center
Fri 07:11:30 PM 27.7411 -83.6192 292° West 403 464 27,300 1,300 Climbing Miami Center
Fri 07:12:30 PM 27.7850 -83.7483 291° West 416 479 28,600 1,500 Climbing Miami Center
Fri 07:13:30 PM 27.8308 -83.8778 292° West 435 501 30,300 1,761 Climbing Miami Center
Fri 07:15:34 PM 27.9247 -84.1492 291° West 431 496 34,000 1,598 Climbing Jacksonville Center
Fri 07:16:34 PM 27.9653 -84.2767 290° West 431 496 35,200 1,100 Climbing Jacksonville Center
Fri 07:17:34 PM 28.0094 -84.4089 291° West 436 502 36,200 1,050 Climbing Jacksonville Center
Fri 07:18:34 PM 28.0478 -84.5222 291° West 436 502 37,300 1,200 Climbing Jacksonville Center
Fri 07:19:34 PM 28.0900 -84.6500 291° West 436 502 38,600 1,250 Climbing Jacksonville Center
Fri 07:20:34 PM 28.1361 -84.7803 292° West 436 502 39,800 1,050 Climbing Jacksonville Center
Fri 07:21:34 PM 28.1758 -84.9103 289° West 436 502 40,700 800 Climbing Jacksonville Center
Fri 07:22:34 PM 28.2197 -85.0339 292° West 431 496 41,400 650 Climbing Jacksonville Center
Fri 07:23:34 PM 28.2614 -85.1619 290° West 433 498 42,000 550 Climbing Jacksonville Center
Fri 07:24:34 PM 28.3050 -85.2903 291° West 433 498 42,500 500 Climbing Jacksonville Center
Fri 07:25:34 PM 28.3464 -85.4161 291° West 433 498 43,000 250 Climbing Jacksonville Center
Fri 07:26:34 PM 28.3875 -85.5444 290° West 433 498 43,000  Level Jacksonville Center
Fri 07:27:34 PM 28.4286 -85.6731 290° West 433 498 43,000  Level Jacksonville Center
Fri 07:28:34 PM 28.4736 -85.8067 291° West 438 504 43,000  Level Jacksonville Center
Fri 07:29:34 PM 28.5144 -85.9378 290° West 438 504 43,000  Level Jacksonville Center
Fri 07:30:34 PM 28.5572 -86.0689 290° West 444 511 43,000  Level Jacksonville Center
Fri 07:31:34 PM 28.5978 -86.1956 290° West 444 511 43,000  Level Jacksonville Center
Fri 07:32:34 PM 28.6422 -86.3294 291° West 443 510 43,000  Level Jacksonville Center
Fri 07:33:34 PM 28.6828 -86.4564 290° West 443 510 43,000  Level Jacksonville Center
Fri 07:34:34 PM 28.7269 -86.5903 291° West 443 510 43,000  Level Jacksonville Center
Fri 07:35:34 PM 28.7669 -86.7222 289° West 443 510 43,000  Level Jacksonville Center
Fri 07:36:34 PM 28.8108 -86.8564 291° West 448 516 43,000  Level Jacksonville Center
Fri 07:37:26 PM 28.8414 -86.9575 289° West 445 512 43,000  Level Houston Center
Fri 07:38:28 PM 28.8917 -87.1175 290° West 448 516 43,000  Level Houston Center
Fri 07:39:30 PM 28.9319 -87.2506 289° West 446 513 43,000  Level Houston Center
Fri 07:40:31 PM 28.9739 -87.3831 290° West 445 512 43,000  Level Houston Center
Fri 07:41:33 PM 29.0150 -87.5161 289° West 445 512 43,000  Level Houston Center
Fri 07:42:35 PM 29.0553 -87.6497 289° West 447 514 43,000  Level Houston Center
Fri 07:43:36 PM 29.0964 -87.7819 290° West 445 512 43,000  Level Houston Center
Fri 07:44:38 PM 29.1361 -87.9164 289° West 447 514 43,000  Level Houston Center
Fri 07:45:40 PM 29.1836 -88.0736 289° West 446 513 43,000  Level Houston Center
Fri 07:46:42 PM 29.2239 -88.2089 289° West 450 518 43,000  Level Houston Center
Fri 07:47:43 PM 29.2642 -88.3425 289° West 448 516 43,000  Level Houston Center
Fri 07:48:45 PM 29.3042 -88.4778 289° West 449 517 43,000  Level Houston Center
Fri 07:49:47 PM 29.3444 -88.6122 289° West 447 514 43,000  Level Houston Center
Fri 07:50:48 PM 29.3850 -88.7467 289° West 447 514 43,000  Level Houston Center
Fri 07:51:50 PM 29.4242 -88.8836 288° West 451 519 43,000  Level Houston Center
Fri 07:52:52 PM 29.4717 -89.0461 289° West 449 517 43,000 194 Level Houston Center
Fri 07:53:54 PM 29.5114 -89.1806 289° West 447 514 43,400 488 Climbing Houston Center
Fri 07:54:55 PM 29.5500 -89.3133 289° West 441 507 44,000 537 Climbing Houston Center
Fri 07:55:57 PM 29.5872 -89.4447 288° West 434 499 44,500 484 Climbing Houston Center
Fri 07:56:59 PM 29.6250 -89.5736 289° West 427 491 45,000 242 Climbing Houston Center
Fri 07:58:01 PM 29.6617 -89.7036 288° West 427 491 45,000  Level Houston Center
Fri 07:59:02 PM 29.7003 -89.8369 288° West 434 499 45,000  Level Houston Center
Fri 08:00:04 PM 29.7369 -89.9692 288° West 434 499 45,000  Level Houston Center
Fri 08:01:06 PM 29.7842 -90.1306 289° West 439 505 45,000  Level Houston Center
Fri 08:02:07 PM 29.8197 -90.2619 287° West 433 498 45,000  Level Houston Center
Fri 08:03:09 PM 29.8581 -90.3961 288° West 438 504 45,000  Level Houston Center
Fri 08:04:11 PM 29.8956 -90.5317 288° West 443 510 45,000  Level Houston Center
Fri 08:05:13 PM 29.9328 -90.6636 288° West 435 501 45,000  Level Houston Center
Fri 08:06:15 PM 29.9611 -90.8003 283° West 435 501 45,000  Level Houston Center
Fri 08:07:17 PM 29.9722 -90.9383 275° West 433 498 45,000  Level Houston Center
Fri 08:08:18 PM 29.9853 -91.0742 276° West 427 491 45,000  Level Houston Center
Fri 08:09:20 PM 30.0031 -91.2350 277° West 422 486 45,000  Level Houston Center
Fri 08:10:22 PM 30.0367 -91.3631 287° West 417 480 45,000  Level Houston Center
Fri 08:11:24 PM 30.0725 -91.4925 288° West 422 486 45,000  Level Houston Center
Fri 08:12:26 PM 30.1075 -91.6211 287° West 422 486 45,000  Level Houston Center
Fri 08:13:29 PM 30.1478 -91.7642 288° West 423 487 45,000  Level Houston Center
Fri 08:14:30 PM 30.1825 -91.8947 287° West 426 490 45,000  Level Houston Center
Fri 08:15:31 PM 30.2214 -92.0353 288° West 429 494 45,000  Level Houston Center
Fri 08:16:33 PM 30.2578 -92.1669 288° West 429 494 45,000  Level Houston Center
Fri 08:17:35 PM 30.2925 -92.2975 287° West 425 489 45,000  Level Houston Center
Fri 08:18:37 PM 30.3228 -92.4150 287° West 419 482 45,000  Level Houston Center
Fri 08:19:39 PM 30.3650 -92.5694 288° West 420 483 45,000  Level Houston Center
Fri 08:20:41 PM 30.3992 -92.6972 287° West 418 481 45,000  Level Houston Center
Fri 08:21:43 PM 30.4336 -92.8264 287° West 421 484 45,000  Level Houston Center
Fri 08:22:45 PM 30.4675 -92.9564 287° West 423 487 45,000  Level Houston Center
Fri 08:23:46 PM 30.5019 -93.0872 287° West 427 491 45,000  Level Houston Center
Fri 08:24:48 PM 30.5450 -93.2425 288° West 426 490 45,000  Level Houston Center
Fri 08:25:50 PM 30.5794 -93.3703 287° West 422 486 45,000  Level Houston Center
Fri 08:26:52 PM 30.6117 -93.4992 286° West 421 484 45,000  Level Houston Center
Fri 08:27:54 PM 30.6439 -93.6256 287° West 418 481 45,000  Level Houston Center
Fri 08:28:56 PM 30.6775 -93.7553 287° West 422 486 45,000  Level Houston Center
Fri 08:29:58 PM 30.7153 -93.9056 286° West 415 478 45,000 -195 Level Houston Center
Fri 08:30:59 PM 30.7461 -94.0278 286° West 404 465 44,600 -488 Descending Houston Center
Fri 08:32:01 PM 30.7758 -94.1500 286° West 400 460 44,000 -290 Descending Houston Center
Fri 08:33:03 PM 30.8058 -94.2711 286° West 387 445 44,000  Level Houston Center
Fri 08:34:05 PM 30.8386 -94.4039 286° West 424 488 44,000  Level Houston Center
Fri 08:35:07 PM 30.8700 -94.5358 286° West 424 488 44,000  Level Houston Center
Fri 08:36:08 PM 30.9031 -94.6697 286° West 423 487 44,000  Level Houston Center
Fri 08:37:10 PM 30.9347 -94.8017 286° West 426 490 44,000  Level Houston Center
Fri 08:38:12 PM 30.9725 -94.9608 286° West 421 484 44,000  Level Houston Center
Fri 08:39:14 PM 31.0056 -95.0908 287° West 416 479 44,000  Level Houston Center
Fri 08:40:16 PM 31.0389 -95.2197 287° West 414 476 44,000  Level Houston Center
Fri 08:41:18 PM 31.0692 -95.3469 286° West 407 468 44,000  Level Houston Center
Fri 08:42:20 PM 31.0839 -95.4781 278° West 403 464 44,000  Level Houston Center
Fri 08:43:21 PM 31.0936 -95.6106 275° West 410 472 44,000  Level Houston Center
Fri 08:44:23 PM 31.1053 -95.7433 276° West 412 474 44,000 48 Level Houston Center
Fri 08:45:27 PM 31.1142 -95.8758 275° West 410 472 44,100 339 Climbing Houston Center
Fri 08:46:27 PM 31.1264 -96.0339 275° West 409 471 44,700 443 Climbing Houston Center
Fri 08:47:29 PM 31.1358 -96.1536 275° West 404 465 45,000 145 Climbing Houston Center
Fri 08:48:31 PM 31.1447 -96.2853 275° West 404 465 45,000  Level Houston Center
Fri 08:49:33 PM 31.1528 -96.4194 274° West 409 471 45,000  Level Houston Center
Fri 08:50:35 PM 31.1650 -96.5775 275° West 415 478 45,000  Level Houston Center
Fri 08:51:37 PM 31.1742 -96.7122 275° West 414 476 45,000  Level Houston Center
Fri 08:52:39 PM 31.1844 -96.8458 275° West 410 472 45,000  Level Houston Center
Fri 08:53:41 PM 31.2006 -96.9789 278° West 414 476 45,000  Level Houston Center
Fri 08:54:43 PM 31.2200 -97.1122 280° West 416 479 45,000  Level Houston Center
Fri 08:55:46 PM 31.2378 -97.2464 279° West 417 480 45,000  Level Houston Center
Fri 08:56:46 PM 31.2561 -97.4050 278° West 422 486 45,000  Level Houston Center
Fri 08:57:48 PM 31.2719 -97.5422 278° West 424 488 45,000  Level Houston Center
Fri 08:59:03 PM 31.3069 -97.7003 285° West 425 489 45,000  Level Fort Worth Center
Fri 09:00:03 PM 31.3378 -97.8342 285° West 425 489 45,000  Level Fort Worth Center
Fri 09:01:03 PM 31.3708 -97.9656 286° West 425 489 45,000  Level Fort Worth Center
Fri 09:02:03 PM 31.4033 -98.1119 285° West 425 489 45,000  Level Fort Worth Center
Fri 09:03:03 PM 31.4358 -98.2461 286° West 425 489 45,000  Level Fort Worth Center
Fri 09:04:03 PM 31.4664 -98.3753 286° West 425 489 45,000  Level Fort Worth Center
Fri 09:05:03 PM 31.4925 -98.5047 283° West 412 474 45,000  Level Fort Worth Center
Fri 09:06:03 PM 31.5225 -98.6344 285° West 412 474 45,000  Level Fort Worth Center
Fri 09:07:03 PM 31.5525 -98.7614 286° West 412 474 45,000  Level Fort Worth Center
Fri 09:08:06 PM 31.5839 -98.8867 286° West 410 472 45,000  Level Houston Center
Fri 09:09:08 PM 31.6150 -99.0167 286° West 412 474 45,000  Level Houston Center
Fri 09:10:03 PM 31.6378 -99.1311 283° West 410 472 45,000  Level Fort Worth Center
Fri 09:11:03 PM 31.6672 -99.2661 284° West 410 472 45,000  Level Fort Worth Center
Fri 09:12:03 PM 31.6967 -99.3983 285° West 415 478 45,000  Level Fort Worth Center
Fri 09:13:03 PM 31.7258 -99.5308 285° West 415 478 45,000  Level Fort Worth Center
Fri 09:14:03 PM 31.7567 -99.6636 285° West 415 478 45,000  Level Fort Worth Center
Fri 09:15:03 PM 31.7856 -99.7986 284° West 415 478 45,000  Level Fort Worth Center
Fri 09:16:03 PM 31.8144 -99.9314 284° West 415 478 45,000  Level Fort Worth Center
Fri 09:17:03 PM 31.8492 -100.0694 287° West 421 484 45,000  Level Fort Worth Center
Fri 09:18:03 PM 31.8814 -100.2147 285° West 428 493 45,000  Level Fort Worth Center
Fri 09:19:03 PM 31.9056 -100.3500 282° West 433 498 45,000  Level Fort Worth Center
Fri 09:20:03 PM 31.9356 -100.4831 285° West 428 493 45,000  Level Fort Worth Center
Fri 09:21:03 PM 31.9617 -100.6186 283° West 422 486 45,000  Level Fort Worth Center
Fri 09:22:03 PM 31.9914 -100.7519 285° West 422 486 45,000  Level Fort Worth Center
Fri 09:23:03 PM 32.0192 -100.8853 284° West 422 486 45,000  Level Fort Worth Center
Fri 09:24:03 PM 32.0472 -101.0014 286° West 422 486 45,000  Level Fort Worth Center
Fri 09:25:03 PM 32.0767 -101.1350 285° West 415 478 45,000  Level Fort Worth Center
Fri 09:26:03 PM 32.1081 -101.2736 285° West 425 489 45,000  Level Fort Worth Center
Fri 09:27:03 PM 32.1333 -101.4022 283° West 425 489 45,000  Level Fort Worth Center
Fri 09:28:03 PM 32.1622 -101.5408 284° West 425 489 45,000  Level Fort Worth Center
Fri 09:29:03 PM 32.1806 -101.6744 279° West 420 483 45,000  Level Fort Worth Center
Fri 09:30:03 PM 32.2094 -101.8058 285° West 420 483 45,000  Level Fort Worth Center
Fri 09:31:03 PM 32.2361 -101.9397 283° West 415 478 45,000  Level Fort Worth Center
Fri 09:32:03 PM 32.2625 -102.0736 283° West 415 478 45,000  Level Fort Worth Center
Fri 09:33:03 PM 32.2886 -102.2078 283° West 415 478 45,000  Level Fort Worth Center
Fri 09:34:03 PM 32.3128 -102.3417 282° West 415 478 45,000  Level Fort Worth Center
Fri 09:35:03 PM 32.3367 -102.4781 282° West 415 478 45,000  Level Fort Worth Center
Fri 09:36:03 PM 32.3667 -102.6125 285° West 420 483 45,000  Level Fort Worth Center
Fri 09:37:03 PM 32.3944 -102.7444 284° West 415 478 45,000  Level Fort Worth Center
Fri 09:38:03 PM 32.4222 -102.8742 284° West 415 478 45,000  Level Fort Worth Center
Fri 09:39:45 PM 32.4658 -103.1100 282° West 413 475 45,000  Level Albuquerque Center
Fri 09:40:47 PM 32.4922 -103.2444 283° West 416 479 45,000  Level Albuquerque Center
Fri 09:41:48 PM 32.5158 -103.3786 282° West 417 480 45,000  Level Albuquerque Center
Fri 09:42:50 PM 32.5411 -103.5142 283° West 420 483 45,000  Level Albuquerque Center
Fri 09:43:51 PM 32.5664 -103.6483 283° West 419 482 45,000  Level Albuquerque Center
Fri 09:44:53 PM 32.5917 -103.7817 283° West 417 480 45,000  Level Albuquerque Center
Fri 09:45:54 PM 32.6153 -103.9169 282° West 418 481 45,000  Level Albuquerque Center
Fri 09:46:56 PM 32.6458 -104.0764 283° West 416 479 45,000  Level Albuquerque Center
Fri 09:47:57 PM 32.6714 -104.2100 283° West 416 479 45,000  Level Albuquerque Center
Fri 09:48:58 PM 32.6947 -104.3447 282° West 418 481 45,000  Level Albuquerque Center
Fri 09:50:00 PM 32.7206 -104.4892 282° West 417 480 45,000  Level Albuquerque Center
Fri 09:51:01 PM 32.7444 -104.6244 282° West 418 481 45,000  Level Albuquerque Center
Fri 09:52:03 PM 32.7686 -104.7594 282° West 418 481 45,000  Level Albuquerque Center
Fri 09:53:04 PM 32.7922 -104.8950 282° West 418 481 45,000  Level Albuquerque Center
Fri 09:54:05 PM 32.8181 -105.0436 282° West 422 486 45,000  Level Albuquerque Center
Fri 09:55:06 PM 32.8422 -105.1797 282° West 421 484 45,000  Level Albuquerque Center
Fri 09:56:08 PM 32.8658 -105.3092 282° West 425 489 45,000  Level Albuquerque Center
Fri 09:57:09 PM 32.8892 -105.4453 282° West 423 487 45,000  Level Albuquerque Center
Fri 09:58:10 PM 32.9128 -105.5819 282° West 423 487 45,000  Level Albuquerque Center
Fri 09:59:12 PM 32.9361 -105.7186 282° West 423 487 45,000  Level Albuquerque Center
Fri 10:00:13 PM 32.9583 -105.8561 281° West 425 489 45,000  Level Albuquerque Center
Fri 10:01:14 PM 32.9856 -106.0206 281° West 427 491 45,000  Level Albuquerque Center
Fri 10:02:16 PM 33.0089 -106.1578 281° West 426 490 45,000  Level Albuquerque Center
Fri 10:03:17 PM 33.0325 -106.2964 282° West 428 493 45,000  Level Albuquerque Center
Fri 10:04:18 PM 33.0547 -106.4353 281° West 429 494 45,000  Level Albuquerque Center
Fri 10:05:19 PM 33.0769 -106.5744 281° West 431 496 45,000  Level Albuquerque Center
Fri 10:06:20 PM 33.0989 -106.7136 281° West 431 496 45,000  Level Albuquerque Center
Fri 10:07:22 PM 33.1211 -106.8542 281° West 433 498 45,000  Level Albuquerque Center
Fri 10:08:23 PM 33.1433 -106.9956 281° West 436 502 45,000  Level Albuquerque Center
Fri 10:09:24 PM 33.1694 -107.1664 280° West 438 504 45,000  Level Albuquerque Center
Fri 10:10:25 PM 33.1917 -107.3086 281° West 440 506 45,000  Level Albuquerque Center
Fri 10:11:27 PM 33.2136 -107.4511 280° West 440 506 45,000  Level Albuquerque Center
Fri 10:12:28 PM 33.2344 -107.5931 280° West 438 504 45,000  Level Albuquerque Center
Fri 10:13:29 PM 33.2550 -107.7353 280° West 438 504 45,000  Level Albuquerque Center
Fri 10:14:31 PM 33.2750 -107.8769 280° West 436 502 45,000  Level Albuquerque Center
Fri 10:15:32 PM 33.3011 -108.0178 283° West 437 503 45,000  Level Albuquerque Center
Fri 10:16:33 PM 33.3367 -108.1525 288° West 434 499 45,000  Level Albuquerque Center
Fri 10:17:34 PM 33.3711 -108.3194 284° West 434 499 45,000  Level Albuquerque Center
Fri 10:18:36 PM 33.4011 -108.4600 284° West 436 502 45,000  Level Albuquerque Center
Fri 10:19:37 PM 33.4311 -108.6019 284° West 441 507 45,000  Level Albuquerque Center
Fri 10:20:38 PM 33.4619 -108.7436 285° West 443 510 45,000  Level Albuquerque Center
Fri 10:21:39 PM 33.4917 -108.8858 284° West 444 511 45,000  Level Albuquerque Center
Fri 10:22:41 PM 33.5194 -109.0281 283° West 444 511 45,000  Level Albuquerque Center
Fri 10:23:42 PM 33.5492 -109.1697 284° West 444 511 45,000  Level Albuquerque Center
Fri 10:24:43 PM 33.5831 -109.3392 284° West 441 507 45,000  Level Albuquerque Center
Fri 10:25:44 PM 33.6125 -109.4817 284° West 443 510 45,000  Level Albuquerque Center
Fri 10:26:46 PM 33.6411 -109.6225 284° West 440 506 45,000  Level Albuquerque Center
Fri 10:27:47 PM 33.6686 -109.7642 283° West 439 505 45,000  Level Albuquerque Center
Fri 10:28:48 PM 33.6969 -109.9064 284° West 440 506 45,000  Level Albuquerque Center
Fri 10:29:49 PM 33.7239 -110.0472 283° West 437 503 45,000  Level Albuquerque Center
Fri 10:30:51 PM 33.7525 -110.1908 284° West 441 507 45,000  Level Albuquerque Center
Fri 10:31:52 PM 33.7800 -110.3331 283° West 440 506 45,000  Level Albuquerque Center
Fri 10:32:53 PM 33.8119 -110.4975 283° West 440 506 45,000  Level Albuquerque Center
Fri 10:33:54 PM 33.8389 -110.6397 283° West 438 504 45,000  Level Albuquerque Center
Fri 10:34:56 PM 33.8653 -110.7808 283° West 436 502 45,000  Level Albuquerque Center
Fri 10:35:57 PM 33.8917 -110.9242 283° West 438 504 45,000  Level Albuquerque Center
Fri 10:36:58 PM 33.9189 -111.0669 283° West 438 504 45,000  Level Albuquerque Center
Fri 10:37:59 PM 33.9458 -111.2106 283° West 441 507 45,000  Level Albuquerque Center
Fri 10:39:01 PM 33.9722 -111.3564 282° West 444 511 45,000  Level Albuquerque Center
Fri 10:40:02 PM 34.0039 -111.5300 282° West 445 512 45,000  Level Albuquerque Center
Fri 10:41:03 PM 34.0319 -111.6825 283° West 448 516 45,000  Level Albuquerque Center
Fri 10:42:04 PM 34.0583 -111.8308 282° West 454 522 45,000  Level Albuquerque Center
Fri 10:43:05 PM 34.0847 -111.9772 282° West 451 519 45,000  Level Albuquerque Center
Fri 10:44:07 PM 34.1081 -112.1117 282° West 459 528 45,000  Level Albuquerque Center
Fri 10:45:08 PM 34.1342 -112.2594 282° West 454 522 45,000  Level Albuquerque Center
Fri 10:46:09 PM 34.1653 -112.4372 282° West 452 520 45,000  Level Albuquerque Center
Fri 10:47:10 PM 34.1906 -112.5856 282° West 452 520 45,000  Level Albuquerque Center
Fri 10:48:12 PM 34.2169 -112.7328 282° West 451 519 45,000  Level Albuquerque Center
Fri 10:49:13 PM 34.2425 -112.8811 282° West 451 519 45,000  Level Albuquerque Center
Fri 10:50:14 PM 34.2681 -113.0303 282° West 453 521 45,000  Level Albuquerque Center
Fri 10:51:15 PM 34.2919 -113.1789 281° West 453 521 45,000  Level Albuquerque Center
Fri 10:52:17 PM 34.3181 -113.3244 282° West 447 514 45,000  Level Albuquerque Center
Fri 10:53:18 PM 34.3425 -113.4728 281° West 450 518 45,000  Level Albuquerque Center
Fri 10:54:19 PM 34.3683 -113.6450 280° West 456 525 45,000  Level Albuquerque Center
Fri 10:55:20 PM 34.3897 -113.7947 280° West 452 520 45,000  Level Albuquerque Center
Fri 10:56:22 PM 34.4172 -113.9400 283° West 446 513 45,000 -244 Level Albuquerque Center
Fri 10:57:23 PM 34.4403 -114.0894 281° West 448 516 44,500 -796 Descending Albuquerque Center
Fri 10:58:15 PM 34.4650 -114.2247 283° West 439 505 43,500 -1,105 Descending Los Angeles Center
Fri 10:59:17 PM 34.4864 -114.3681 280° West 435 501 42,400 -1,161 Descending Los Angeles Center
Fri 11:00:19 PM 34.5108 -114.5147 281° West 444 511 41,100 -1,268 Descending Los Angeles Center
Fri 11:01:20 PM 34.5331 -114.6619 280° West 447 514 39,800 -1,268 Descending Los Angeles Center
Fri 11:02:22 PM 34.5567 -114.8103 281° West 449 517 38,500 -1,268 Descending Los Angeles Center
Fri 11:03:23 PM 34.5789 -114.9586 280° West 450 518 37,200 -1,415 Descending Los Angeles Center
Fri 11:04:25 PM 34.6058 -115.1397 280° West 454 522 35,600 -1,500 Descending Los Angeles Center
Fri 11:05:27 PM 34.6286 -115.2917 280° West 459 528 34,100 -1,415 Descending Los Angeles Center
Fri 11:06:28 PM 34.6522 -115.4456 281° West 465 535 32,700 -1,463 Descending Los Angeles Center
Fri 11:07:30 PM 34.6764 -115.6078 280° West 477 549 31,100 -1,378 Descending Los Angeles Center
Fri 11:08:43 PM 34.6992 -115.7678 280° West 481 554 29,600 -1,467 Descending Los Angeles Center
Fri 11:09:45 PM 34.7256 -115.9578 280° West 476 548 27,800 -1,548 Descending Los Angeles Center
Fri 11:10:47 PM 34.7478 -116.1125 280° West 469 540 26,400 -1,258 Descending Los Angeles Center
Fri 11:11:49 PM 34.7692 -116.2622 280° West 458 527 25,200 -1,113 Descending Los Angeles Center
Fri 11:12:51 PM 34.7906 -116.4072 280° West 440 506 24,100 -1,073 Descending Los Angeles Center
Fri 11:13:52 PM 34.7850 -116.5814 268° West 433 498 23,000 -976 Descending Los Angeles Center
Fri 11:14:54 PM 34.7708 -116.7250 263° West 427 491 22,100 -927 Descending Los Angeles Center
Fri 11:15:55 PM 34.7575 -116.8681 264° West 425 489 21,100 -976 Descending Los Angeles Center
Fri 11:16:57 PM 34.7428 -117.0108 263° West 425 489 20,100 -532 Descending Los Angeles Center
Fri 11:17:59 PM 34.7281 -117.1497 263° West 416 479 20,000 -49 Descending Los Angeles Center
Fri 11:19:00 PM 34.7131 -117.2908 263° West 419 482 20,000  Level Los Angeles Center
Fri 11:20:02 PM 34.6981 -117.4347 263° West 424 488 20,000 -677 Level Los Angeles Center
Fri 11:21:04 PM 34.6833 -117.5744 263° West 417 480 18,600 -1,707 Descending Los Angeles Center
Fri 11:22:05 PM 34.6683 -117.7086 262° West 402 463 16,500 -2,146 Descending Los Angeles Center
Fri 11:23:07 PM 34.6483 -117.8656 261° West 391 450 14,200 -1,935 Descending Los Angeles Center
Fri 11:24:09 PM 34.6269 -117.9892 258° West 375 432 12,500 -1,659 Descending Los Angeles Center
Fri 11:25:10 PM 34.6086 -118.1050 259° West 350 403 10,800 -1,610 Descending Los Angeles Center
Fri 11:26:12 PM 34.5908 -118.2128 259° West 299 344 9,200 -1,355 Descending Los Angeles Center
Fri 11:27:14 PM 34.5750 -118.3011 258° West 273 314 8,000 -533 Descending Los Angeles Center
Fri 11:28:27 PM 34.5586 -118.3931 258° West 276 318 8,000 -444 Level Los Angeles Center
Fri 11:29:29 PM 34.5117 -118.4781 236° Southwest 271 312 7,000 -919 Descending Los Angeles Center
Fri 11:30:31 PM 34.4486 -118.5278 213° Southwest 272 313 6,100 -488 Descending Los Angeles Center
Fri 11:31:32 PM 34.3833 -118.5725 209° Southwest 270 311 6,000 -439 Descending Los Angeles Center
Fri 11:32:34 PM 34.3114 -118.5933 193° South 275 316 5,200 -629 Descending Los Angeles Center
Fri 11:33:36 PM 34.2342 -118.5783 171° South 246 283 4,700 -1,073 Descending Los Angeles Center
Fri 11:34:37 PM 34.2069 -118.5289 124° Southeast 214 246 3,000 -1,073 Descending Los Angeles Center
Fri 11:35:39 PM 34.1994 -118.4747 99° East 180 207 2,500 -677 Descending Los Angeles Center
Fri 11:36:41 PM 34.1997 -118.4208 90° East 168 193 1,600 -683 Descending Los Angeles Center
Fri 11:37:42 PM 34.1983 -118.3739 92° East 156 180 1,100 -492 Descending Los Angeles Center
Fri 11:39:00 PM 34.2000 -118.3500 90° East  Level FlightAware Approximate

Login

Don't have an account? Register now (free) for customized features, flight alerts, and more!